Carlton, AL (36515)

6:29 AM CDT on May 30, 2015 (GMT -0500)
Jackson, AL | | Change Station
CLOSE
Current Station
Personal Weather Station
Location: Jackson, AL
Elevation: 53 ft
Nearby Weather Stations

Elev 53 ft 31.49 °N, 87.90 °W | Updated 4 seconds ago

Mostly Cloudy
Mostly Cloudy
67.1 °F
Feels Like 67.1 °F
N
0.0
Wind Variable Wind from ENE
Gusts 0.0 mph

Today
High -- | Low -- °F
--% Chance of Precip.
Yesterday
High -- | Low -- °F
Precip. -- in
5:48 AM 7:49 PM
Waxing Gibbous, 90% visible
Pressure 30.10 in
Visibility 0.5 miles
Clouds
Dew Point 66 °F
Humidity 98%
Rainfall 0.00 in
Snow Depth Not available.
UV Not available.
Pollen 4.30 out of 12
Air Quality Not available.
Flu Activity Sporadic
METAR KGZH 301053Z AUTO 00000KT 1/2SM FG VV002 18/17 A3010 RMK AO2 SLP191 T01780172

More Conditions Fewer Conditions

Pressure 30.10 in
Visibility 0.5 miles
Clouds
Dew Point 66 °F
Humidity 98%
Rainfall 0.00 in
Snow Depth Not available.
UV Not available.
Pollen 4.30 out of 12
Air Quality Not available.
Flu Activity Sporadic
METAR KGZH 301053Z AUTO 00000KT 1/2SM FG VV002 18/17 A3010 RMK AO2 SLP191 T01780172

More Conditions Fewer Conditions

10-Day Weather Forecast

Almanac

Astronomy

May. 30, 2015 Rise Set
Actual Time
Civil Twilight
Nautical Twilight
Astronomical Twilight
Moon
Length of Visible Light
Length of Day
Tomorrow will be .
, % of the Moon is Illuminated

Today's Extremes

State Highs State Lows

Community

WunderPhotos

Upload Photos

1,825,481 photos uploaded!

WunderBlogs® & News

Nearby

Air Quality

  Air Quality AQ Index Pollutant
Not available.

Snow Depth

Station Depth Elevation

Earthquake Activity

City Distance Mag. Time & Date
Minimum magnitude displayed is 2.5.

Coastal Water Temperatures

Place Temperature

Stations

Nearby Weather Stations

Station Location Temp. Windchill Dew Point Humidity Wind Precip. Elev Updated Type